createdAt,value
2022-08-11T00:05:38.832Z,24.3
2022-08-11T00:11:19.056Z,24.4
2022-08-11T00:17:05.910Z,24.4
2022-08-11T00:24:17.561Z,24.4
2022-08-11T00:30:10.226Z,24.4
2022-08-11T00:37:04.144Z,24.4
2022-08-11T00:42:48.961Z,24.4
2022-08-11T00:48:17.868Z,24.4
2022-08-11T00:54:33.318Z,24.4
2022-08-11T01:00:58.126Z,24.4
2022-08-11T01:06:32.512Z,24.5
2022-08-11T01:13:02.362Z,24.5
2022-08-11T01:19:02.568Z,24.5
2022-08-11T01:25:32.866Z,24.5
2022-08-11T01:31:51.953Z,24.5
2022-08-11T01:37:30.791Z,24.5
2022-08-11T01:42:51.945Z,24.5
2022-08-11T01:48:27.029Z,24.5
2022-08-11T01:54:48.060Z,24.6
2022-08-11T02:00:40.352Z,24.6
2022-08-11T02:06:26.820Z,24.6
2022-08-11T02:12:21.385Z,24.6
2022-08-11T02:18:12.460Z,24.6
2022-08-11T02:24:39.912Z,24.6
2022-08-11T02:30:26.129Z,24.6
2022-08-11T02:37:29.433Z,24.6
2022-08-11T02:43:09.538Z,24.6
2022-08-11T02:49:07.104Z,24.6
2022-08-11T02:54:47.501Z,24.6
2022-08-11T03:00:45.992Z,24.6
2022-08-11T03:06:33.524Z,24.6
2022-08-11T03:12:18.064Z,24.6
2022-08-11T03:17:46.684Z,24.6
2022-08-11T03:24:10.964Z,24.5
2022-08-11T03:29:42.407Z,24.4
2022-08-11T03:35:21.490Z,24.4
2022-08-11T03:42:20.717Z,24.5
2022-08-11T03:48:12.905Z,24.4
2022-08-11T03:54:04.215Z,24.3
2022-08-11T03:59:47.960Z,23.9
2022-08-11T04:05:27.700Z,24.1
2022-08-11T04:11:11.983Z,24.1
2022-08-11T04:17:19.035Z,24.1
2022-08-11T04:23:02.575Z,24.1
2022-08-11T04:31:14.995Z,24.1
2022-08-11T04:37:32.423Z,24.1
2022-08-11T04:43:15.384Z,24.2
2022-08-11T04:49:51.170Z,24.2
2022-08-11T04:55:59.701Z,24.2
2022-08-11T05:01:39.209Z,24.2
2022-08-11T05:07:20.458Z,24.1
2022-08-11T05:12:48.414Z,24.1
2022-08-11T05:18:27.557Z,24.1
2022-08-11T05:24:14.437Z,24.1
2022-08-11T05:31:33.259Z,24.1
2022-08-11T05:38:16.734Z,24.1
2022-08-11T05:45:15.494Z,24.1
2022-08-11T05:51:54.571Z,24.2
2022-08-11T05:58:42.525Z,24.2
2022-08-11T06:04:32.313Z,24.2
2022-08-11T06:10:18.965Z,24.2
2022-08-11T06:16:14.264Z,24.2
2022-08-11T06:22:03.925Z,24.3
2022-08-11T06:28:03.399Z,24.3
2022-08-11T06:33:54.352Z,24.3
2022-08-11T06:39:38.761Z,24.3
2022-08-11T06:45:19.367Z,24.3
2022-08-11T06:51:00.951Z,24.3
2022-08-11T06:58:38.875Z,24.3
2022-08-11T07:04:02.280Z,24.3
2022-08-11T07:11:13.910Z,24.3
2022-08-11T07:18:10.187Z,24.3
2022-08-11T07:24:34.446Z,24.4
2022-08-11T07:30:42.874Z,24.4
2022-08-11T07:36:53.047Z,24.4
2022-08-11T07:42:39.361Z,24.4
2022-08-11T07:48:18.176Z,24.4
2022-08-11T07:54:20.762Z,24.4
2022-08-11T08:02:34.799Z,24.4
2022-08-11T08:08:39.240Z,24.4
2022-08-11T08:14:19.129Z,24.4
2022-08-11T08:20:21.564Z,24.4
2022-08-11T08:26:51.709Z,24.4
2022-08-11T08:32:35.040Z,24.4
2022-08-11T08:38:54.374Z,24.5
2022-08-11T08:45:25.865Z,24.5
2022-08-11T08:51:28.589Z,24.5
2022-08-11T08:58:13.427Z,24.5
2022-08-11T09:04:41.086Z,24.5
2022-08-11T09:10:12.926Z,24.5
2022-08-11T09:15:56.358Z,24.5
2022-08-11T09:22:06.420Z,24.6
2022-08-11T09:28:44.583Z,24.6
2022-08-11T09:34:26.314Z,24.6
2022-08-11T09:40:14.339Z,24.6
2022-08-11T09:46:47.339Z,24.6
2022-08-11T09:52:44.987Z,24.6
2022-08-11T09:59:33.495Z,24.6
2022-08-11T10:05:20.434Z,24.6
2022-08-11T10:11:09.540Z,24.6
2022-08-11T10:18:44.244Z,24.6
2022-08-11T10:24:53.717Z,24.6
2022-08-11T10:32:22.131Z,24.6
2022-08-11T10:39:35.828Z,24.6
2022-08-11T10:46:48.228Z,24.6
2022-08-11T10:52:59.114Z,24.6
2022-08-11T10:58:57.551Z,24.6
2022-08-11T11:05:08.376Z,24.7
2022-08-11T11:11:38.043Z,24.7
2022-08-11T11:17:31.792Z,24.7
2022-08-11T11:23:40.230Z,24.7
2022-08-11T11:29:30.860Z,24.7
2022-08-11T11:36:00.658Z,24.7
2022-08-11T11:41:58.615Z,24.7
2022-08-11T11:47:55.943Z,24.8
2022-08-11T11:53:47.118Z,24.8
2022-08-11T11:59:45.352Z,24.7
2022-08-11T12:05:34.422Z,24.7
2022-08-11T12:11:35.880Z,24.7
2022-08-11T12:18:14.201Z,24.7
2022-08-11T12:26:26.215Z,24.8
2022-08-11T12:32:34.149Z,24.8
2022-08-11T12:38:48.561Z,24.8
2022-08-11T12:46:29.399Z,24.8
2022-08-11T12:53:58.097Z,24.8
2022-08-11T13:00:13.404Z,24.8
2022-08-11T13:06:02.249Z,24.8
2022-08-11T13:12:14.343Z,24.8
2022-08-11T13:18:35.841Z,24.8
2022-08-11T13:24:36.362Z,24.8
2022-08-11T13:30:47.285Z,24.8
2022-08-11T13:36:31.874Z,24.8
2022-08-11T13:43:41.557Z,24.8
2022-08-11T13:49:22.490Z,24.8
2022-08-11T13:54:53.729Z,24.8
2022-08-11T14:04:46.397Z,24.8
2022-08-11T14:10:34.721Z,24.8
2022-08-11T14:18:05.941Z,24.8
2022-08-11T14:24:23.679Z,24.9
2022-08-11T14:32:04.627Z,24.8
2022-08-11T14:38:39.494Z,24.9
2022-08-11T14:45:21.483Z,24.9
2022-08-11T14:51:48.493Z,24.9
2022-08-11T14:58:13.007Z,24.9
2022-08-11T15:04:04.551Z,24.9
2022-08-11T15:11:04.813Z,24.9
2022-08-11T15:17:12.823Z,24.9
2022-08-11T15:23:06.649Z,24.9
2022-08-11T15:28:44.674Z,24.9
2022-08-11T15:35:00.534Z,24.9
2022-08-11T15:41:21.938Z,24.9
2022-08-11T15:47:38.025Z,24.9
2022-08-11T15:53:59.405Z,24.9
2022-08-11T16:00:24.468Z,24.9
2022-08-11T16:07:36.364Z,24.8
2022-08-11T16:13:59.809Z,24.8
2022-08-11T16:19:41.471Z,24.8
2022-08-11T16:28:32.189Z,24.8
2022-08-11T16:34:59.027Z,24.8
2022-08-11T16:40:41.669Z,24.8
2022-08-11T16:47:53.862Z,24.8
2022-08-11T16:54:39.023Z,24.8
2022-08-11T17:01:22.112Z,24.8
2022-08-11T17:07:02.786Z,24.8
2022-08-11T17:13:43.453Z,24.8
2022-08-11T17:20:39.269Z,24.8
2022-08-11T17:26:54.519Z,24.8
2022-08-11T17:33:14.456Z,24.8
2022-08-11T17:39:00.019Z,24.8
2022-08-11T17:44:49.742Z,24.8
2022-08-11T17:50:43.146Z,24.8
2022-08-11T17:57:20.029Z,24.8
2022-08-11T18:03:25.632Z,24.8
2022-08-11T18:09:23.295Z,24.8
2022-08-11T18:15:55.722Z,24.8
2022-08-11T18:21:27.652Z,24.8
2022-08-11T18:27:33.242Z,24.8
2022-08-11T18:34:41.597Z,24.8
2022-08-11T18:40:32.436Z,24.8
2022-08-11T18:46:40.678Z,24.7
2022-08-11T18:54:01.277Z,24.7
2022-08-11T18:59:51.410Z,24.6
2022-08-11T19:06:56.872Z,24.6
2022-08-11T19:12:51.150Z,24.6
2022-08-11T19:18:52.450Z,24.6
2022-08-11T19:24:20.948Z,24.6
2022-08-11T19:30:31.058Z,24.7
2022-08-11T19:36:48.551Z,24.6
2022-08-11T19:43:04.576Z,24.7
2022-08-11T19:49:38.272Z,24.7
2022-08-11T19:55:15.945Z,24.7
2022-08-11T20:01:04.232Z,24.7
2022-08-11T20:07:25.829Z,24.7
2022-08-11T20:14:00.126Z,24.7
2022-08-11T20:19:25.871Z,24.7
2022-08-11T20:25:42.954Z,24.6
2022-08-11T20:31:43.496Z,24.6
2022-08-11T20:37:30.395Z,24.6
2022-08-11T20:44:39.315Z,24.7
2022-08-11T20:51:10.882Z,24.6
2022-08-11T20:58:21.941Z,24.6
2022-08-11T21:17:25.974Z,24.7
2022-08-11T21:24:49.656Z,24.7
2022-08-11T21:30:41.508Z,24.7
2022-08-11T21:36:20.581Z,24.7
2022-08-11T21:42:22.952Z,24.7
2022-08-11T21:48:18.779Z,24.7
2022-08-11T21:54:01.476Z,24.7
2022-08-11T21:59:46.168Z,24.8
2022-08-11T22:05:16.670Z,24.8
2022-08-11T22:11:32.804Z,24.8
2022-08-11T22:18:23.212Z,24.8
2022-08-11T22:25:38.384Z,24.8
2022-08-11T22:31:46.593Z,24.8
2022-08-11T22:38:01.174Z,24.8
2022-08-11T22:43:40.002Z,24.8
2022-08-11T22:49:03.875Z,24.8
2022-08-11T22:55:05.192Z,24.8
2022-08-11T23:00:48.636Z,24.8
2022-08-11T23:07:05.109Z,24.8
2022-08-11T23:13:06.003Z,24.8
2022-08-11T23:18:45.088Z,24.8
2022-08-11T23:25:52.375Z,24.8
2022-08-11T23:31:43.709Z,24.8
2022-08-11T23:39:15.621Z,24.8
2022-08-11T23:44:59.203Z,24.8
2022-08-11T23:50:53.774Z,24.8
2022-08-11T23:56:50.658Z,24.8
